createdAt,value
2017-12-30T00:00:04.898Z,99.99
2017-12-30T00:01:04.877Z,99.99
2017-12-30T00:02:04.811Z,99.99
2017-12-30T00:03:04.810Z,99.99
2017-12-30T00:04:04.824Z,99.99
2017-12-30T00:05:04.752Z,99.99
2017-12-30T00:06:04.819Z,99.99
2017-12-30T00:07:04.730Z,99.99
2017-12-30T00:08:04.773Z,99.99
2017-12-30T00:09:04.820Z,99.99
2017-12-30T00:10:04.821Z,99.99
2017-12-30T00:11:04.822Z,99.99
2017-12-30T00:12:04.826Z,99.99
2017-12-30T00:13:04.732Z,99.99
2017-12-30T00:14:04.778Z,99.99
2017-12-30T00:15:04.730Z,99.99
2017-12-30T00:16:04.736Z,99.99
2017-12-30T00:17:04.827Z,99.99
2017-12-30T00:18:04.841Z,99.99
2017-12-30T00:19:04.832Z,99.99
2017-12-30T00:20:04.814Z,99.99
2017-12-30T00:21:04.782Z,99.99
2017-12-30T00:22:04.872Z,99.99
2017-12-30T00:23:04.738Z,99.99
2017-12-30T00:24:04.737Z,99.99
2017-12-30T00:25:04.785Z,99.99
2017-12-30T00:26:04.788Z,99.99
2017-12-30T00:28:04.739Z,99.99
2017-12-30T00:29:04.782Z,99.99
2017-12-30T00:30:04.838Z,99.99
2017-12-30T00:31:04.789Z,99.99
2017-12-30T00:32:04.849Z,99.99
2017-12-30T00:33:04.748Z,99.99
2017-12-30T00:34:04.831Z,99.99
2017-12-30T00:35:04.900Z,99.99
2017-12-30T00:36:04.825Z,99.99
2017-12-30T00:37:04.900Z,99.99
2017-12-30T00:38:04.828Z,99.99
2017-12-30T00:39:04.921Z,99.99
2017-12-30T00:40:04.830Z,99.99
2017-12-30T00:41:04.898Z,99.99
2017-12-30T00:42:04.832Z,99.99
2017-12-30T00:43:04.838Z,99.99
2017-12-30T00:44:04.900Z,99.99
2017-12-30T00:45:04.900Z,99.99
2017-12-30T00:46:04.901Z,99.99
2017-12-30T00:47:04.907Z,99.99
2017-12-30T00:48:04.838Z,99.99
2017-12-30T00:49:04.838Z,99.99
2017-12-30T00:50:04.904Z,99.99
2017-12-30T00:51:04.843Z,99.99
2017-12-30T00:52:04.907Z,99.99
2017-12-30T00:53:04.833Z,99.99
2017-12-30T00:54:04.905Z,99.99
2017-12-30T00:55:04.841Z,99.99
2017-12-30T00:56:04.907Z,99.99
2017-12-30T00:57:04.838Z,99.99
2017-12-30T00:58:04.843Z,99.99
2017-12-30T00:59:04.909Z,99.99
2017-12-30T01:00:04.845Z,99.99
2017-12-30T01:01:04.912Z,99.99
2017-12-30T01:02:04.912Z,99.99
2017-12-30T01:03:04.848Z,99.99
2017-12-30T01:04:04.914Z,99.99
2017-12-30T01:05:04.847Z,99.99
2017-12-30T01:06:04.850Z,99.99
2017-12-30T01:07:04.850Z,99.99
2017-12-30T01:08:04.918Z,99.99
2017-12-30T01:09:04.848Z,99.99
2017-12-30T01:10:04.922Z,99.99
2017-12-30T01:11:04.849Z,99.99
2017-12-30T01:12:04.920Z,99.99
2017-12-30T01:13:04.854Z,99.99
2017-12-30T01:14:04.919Z,99.99
2017-12-30T01:15:04.854Z,99.99
2017-12-30T01:16:04.921Z,99.99
2017-12-30T01:17:04.853Z,99.99
2017-12-30T01:18:04.926Z,99.99
2017-12-30T01:19:04.857Z,99.99
2017-12-30T01:20:04.922Z,99.99
2017-12-30T01:21:04.853Z,99.99
2017-12-30T01:22:04.851Z,99.99
2017-12-30T01:23:04.861Z,99.99
2017-12-30T01:24:04.924Z,99.99
2017-12-30T01:25:04.925Z,99.99
2017-12-30T01:26:04.872Z,99.99
2017-12-30T01:27:04.856Z,99.99
2017-12-30T01:28:04.929Z,99.99
2017-12-30T01:29:04.860Z,99.99
2017-12-30T01:30:04.930Z,99.99
2017-12-30T01:31:04.862Z,99.99
2017-12-30T01:32:04.887Z,99.99
2017-12-30T01:33:04.931Z,99.99
2017-12-30T01:34:04.932Z,99.99
2017-12-30T01:35:04.867Z,99.99
2017-12-30T01:36:04.982Z,99.99
2017-12-30T01:37:04.936Z,99.99
2017-12-30T01:38:04.866Z,99.99
2017-12-30T01:39:04.935Z,99.99
2017-12-30T01:40:04.873Z,99.99
2017-12-30T01:41:04.935Z,99.99
2017-12-30T01:42:04.939Z,99.99
2017-12-30T01:43:04.876Z,99.99
2017-12-30T01:44:04.870Z,99.99
2017-12-30T01:45:04.921Z,99.99
2017-12-30T01:46:04.905Z,99.99
2017-12-30T01:47:04.844Z,99.99
2017-12-30T01:48:04.903Z,99.99
2017-12-30T01:49:04.825Z,99.99
2017-12-30T01:50:04.870Z,99.99
2017-12-30T01:51:04.911Z,99.99
2017-12-30T01:52:04.842Z,99.99
2017-12-30T01:53:04.909Z,99.99
2017-12-30T01:54:04.943Z,99.99
2017-12-30T01:55:04.941Z,99.99
2017-12-30T01:56:04.881Z,99.99
2017-12-30T01:57:04.945Z,99.99
2017-12-30T01:58:04.873Z,99.99
2017-12-30T01:59:04.960Z,99.99
2017-12-30T02:00:04.880Z,99.99
2017-12-30T02:01:04.949Z,99.99
2017-12-30T02:02:04.947Z,99.99
2017-12-30T02:03:04.882Z,99.99
2017-12-30T02:04:04.940Z,99.99
2017-12-30T02:05:04.878Z,99.99
2017-12-30T02:06:04.915Z,99.99
2017-12-30T02:07:04.896Z,99.99
2017-12-30T02:08:04.833Z,99.99
2017-12-30T02:09:04.837Z,99.99
2017-12-30T02:10:04.951Z,99.99
2017-12-30T02:11:04.852Z,99.99
2017-12-30T02:12:04.833Z,99.99
2017-12-30T02:13:04.858Z,99.99
2017-12-30T02:14:04.953Z,99.99
2017-12-30T02:15:04.955Z,99.99
2017-12-30T02:16:04.953Z,99.99
2017-12-30T02:17:04.891Z,99.99
2017-12-30T02:18:04.962Z,99.99
2017-12-30T02:19:04.896Z,99.99
2017-12-30T02:20:04.960Z,99.99
2017-12-30T02:21:04.888Z,99.99
2017-12-30T02:22:04.958Z,99.99
2017-12-30T02:23:04.958Z,99.99
2017-12-30T02:24:04.922Z,99.99
2017-12-30T02:25:04.854Z,99.99
2017-12-30T02:26:04.832Z,99.99
2017-12-30T02:27:04.871Z,99.99
2017-12-30T02:28:04.829Z,99.99
2017-12-30T02:29:04.827Z,99.99
2017-12-30T02:30:04.944Z,99.99
2017-12-30T02:31:04.946Z,99.99
2017-12-30T02:32:04.834Z,99.99
2017-12-30T02:33:04.955Z,99.99
2017-12-30T02:34:04.939Z,99.99
2017-12-30T02:35:04.890Z,99.99
2017-12-30T02:36:04.888Z,99.99
2017-12-30T02:37:04.834Z,99.99
2017-12-30T02:38:04.836Z,99.99
2017-12-30T02:39:04.835Z,99.99
2017-12-30T02:40:04.858Z,99.99
2017-12-30T02:41:04.957Z,99.99
2017-12-30T02:42:04.828Z,99.99
2017-12-30T02:43:04.924Z,99.99
2017-12-30T02:44:04.906Z,99.99
2017-12-30T02:45:04.975Z,99.99
2017-12-30T02:46:04.906Z,99.99
2017-12-30T02:47:04.911Z,99.99
2017-12-30T02:48:04.976Z,99.99
2017-12-30T02:49:04.906Z,99.99
2017-12-30T02:50:04.977Z,99.99
2017-12-30T02:51:04.912Z,99.99
2017-12-30T02:52:04.915Z,99.99
2017-12-30T02:53:04.982Z,99.99
2017-12-30T02:54:04.962Z,99.99
2017-12-30T02:55:04.895Z,99.99
2017-12-30T02:56:04.862Z,99.99
2017-12-30T02:57:04.834Z,99.99
2017-12-30T02:58:04.961Z,99.99
2017-12-30T02:59:04.876Z,99.99
2017-12-30T03:00:04.961Z,99.99
2017-12-30T03:01:04.935Z,99.99
2017-12-30T03:02:04.912Z,99.99
2017-12-30T03:03:04.911Z,99.99
2017-12-30T03:04:04.977Z,99.99
2017-12-30T03:05:04.935Z,99.99
2017-12-30T03:06:04.868Z,99.99
2017-12-30T03:07:04.882Z,99.99
2017-12-30T03:08:04.952Z,99.99
2017-12-30T03:09:04.972Z,99.99
2017-12-30T03:10:04.916Z,99.99
2017-12-30T03:11:04.984Z,99.99
2017-12-30T03:12:04.986Z,99.99
2017-12-30T03:13:04.881Z,99.99
2017-12-30T03:14:04.864Z,99.99
2017-12-30T03:15:04.937Z,99.99
2017-12-30T03:16:04.917Z,99.99
2017-12-30T03:17:04.865Z,99.99
2017-12-30T03:18:04.978Z,99.99
2017-12-30T03:19:04.952Z,99.99
2017-12-30T03:20:04.857Z,99.99
2017-12-30T03:21:04.883Z,99.99
2017-12-30T03:22:04.915Z,99.99
2017-12-30T03:23:04.976Z,99.99
2017-12-30T03:24:04.997Z,99.99
2017-12-30T03:25:04.939Z,99.99
2017-12-30T03:26:04.996Z,99.92
2017-12-30T03:27:04.937Z,99.78
2017-12-30T03:28:04.994Z,99.64
2017-12-30T03:29:05.001Z,99.62
2017-12-30T03:30:04.943Z,99.48
2017-12-30T03:31:05.005Z,99.48
2017-12-30T03:32:04.938Z,99.37
2017-12-30T03:33:05.004Z,99.29
2017-12-30T03:34:05.007Z,99.29
2017-12-30T03:35:04.936Z,99.34
2017-12-30T03:36:05.010Z,99.37
2017-12-30T03:37:04.938Z,99.48
2017-12-30T03:38:04.939Z,99.48
2017-12-30T03:39:05.012Z,99.51
2017-12-30T03:40:04.939Z,99.59
2017-12-30T03:41:05.008Z,99.62
2017-12-30T03:42:04.942Z,99.72
2017-12-30T03:43:05.007Z,99.72
2017-12-30T03:44:04.938Z,99.78
2017-12-30T03:45:05.011Z,99.81
2017-12-30T03:46:04.943Z,99.89
2017-12-30T03:47:05.021Z,99.94
2017-12-30T03:48:05.016Z,99.89
2017-12-30T03:49:04.945Z,99.89
2017-12-30T03:50:05.015Z,99.81
2017-12-30T03:51:04.949Z,99.83
2017-12-30T03:52:04.945Z,99.81
2017-12-30T03:53:05.014Z,99.78
2017-12-30T03:54:04.946Z,99.81
2017-12-30T03:55:05.019Z,99.78
2017-12-30T03:56:04.952Z,99.78
2017-12-30T03:57:05.020Z,99.78
2017-12-30T03:58:04.953Z,99.72
2017-12-30T03:59:05.022Z,99.72
2017-12-30T04:00:04.953Z,99.75
2017-12-30T04:01:05.020Z,99.70
2017-12-30T04:02:04.993Z,99.72
2017-12-30T04:03:04.955Z,99.72
2017-12-30T04:04:05.011Z,99.62
2017-12-30T04:05:05.011Z,99.64
2017-12-30T04:06:04.931Z,99.59
2017-12-30T04:07:05.017Z,99.48
2017-12-30T04:08:04.956Z,99.43
2017-12-30T04:09:05.023Z,99.43
2017-12-30T04:10:04.992Z,99.26
2017-12-30T04:11:05.019Z,99.15
2017-12-30T04:12:05.013Z,99.15
2017-12-30T04:13:04.928Z,99.10
2017-12-30T04:14:04.937Z,99.02
2017-12-30T04:15:04.846Z,98.94
2017-12-30T04:16:04.851Z,98.77
2017-12-30T04:17:04.846Z,98.59
2017-12-30T04:18:04.941Z,98.50
2017-12-30T04:19:04.898Z,98.50
2017-12-30T04:20:04.853Z,98.45
2017-12-30T04:21:04.891Z,98.42
2017-12-30T04:22:04.910Z,98.34
2017-12-30T04:23:04.942Z,98.31
2017-12-30T04:24:05.022Z,98.34
2017-12-30T04:25:04.933Z,98.29
2017-12-30T04:26:04.943Z,98.23
2017-12-30T04:27:04.971Z,98.23
2017-12-30T04:28:05.028Z,98.15
2017-12-30T04:29:05.024Z,98.02
2017-12-30T04:30:04.939Z,98.02
2017-12-30T04:31:04.940Z,97.93
2017-12-30T04:32:04.906Z,97.96
2017-12-30T04:33:04.941Z,97.88
2017-12-30T04:34:04.924Z,97.83
2017-12-30T04:35:04.944Z,97.85
2017-12-30T04:36:04.971Z,97.80
2017-12-30T04:37:05.038Z,97.88
2017-12-30T04:38:04.942Z,97.80
2017-12-30T04:39:04.908Z,97.91
2017-12-30T04:40:04.927Z,97.99
2017-12-30T04:41:05.031Z,98.02
2017-12-30T04:42:04.992Z,98.07
2017-12-30T04:43:04.947Z,98.21
2017-12-30T04:44:05.046Z,98.34
2017-12-30T04:45:04.985Z,98.42
2017-12-30T04:46:05.047Z,98.48
2017-12-30T04:47:04.983Z,98.64
2017-12-30T04:48:05.048Z,98.75
2017-12-30T04:49:04.983Z,98.88
2017-12-30T04:50:04.929Z,99.02
2017-12-30T04:51:05.086Z,99.07
2017-12-30T04:52:05.050Z,99.23
2017-12-30T04:53:05.050Z,99.34
2017-12-30T04:54:05.049Z,99.32
2017-12-30T04:55:04.988Z,99.34
2017-12-30T04:56:05.051Z,99.34
2017-12-30T04:57:05.052Z,99.34
2017-12-30T04:58:04.989Z,99.32
2017-12-30T04:59:05.057Z,99.26
2017-12-30T05:00:05.055Z,99.29
2017-12-30T05:01:05.007Z,99.21
2017-12-30T05:02:04.990Z,99.15
2017-12-30T05:03:05.057Z,99.15
2017-12-30T05:04:05.048Z,99.04
2017-12-30T05:05:05.042Z,99.04
2017-12-30T05:06:04.966Z,99.04
2017-12-30T05:07:04.960Z,99.07
2017-12-30T05:08:04.962Z,99.07
2017-12-30T05:09:04.961Z,99.07
2017-12-30T05:10:05.049Z,99.15
2017-12-30T05:11:05.033Z,99.07
2017-12-30T05:12:05.055Z,99.04
2017-12-30T05:13:04.994Z,98.88
2017-12-30T05:14:05.051Z,98.80
2017-12-30T05:15:05.055Z,98.64
2017-12-30T05:16:04.968Z,98.50
2017-12-30T05:17:04.965Z,98.48
2017-12-30T05:18:05.059Z,98.48
2017-12-30T05:19:04.995Z,98.53
2017-12-30T05:20:04.964Z,98.66
2017-12-30T05:21:05.036Z,98.55
2017-12-30T05:22:04.968Z,98.53
2017-12-30T05:23:04.973Z,98.55
2017-12-30T05:24:05.003Z,98.55
2017-12-30T05:25:04.951Z,98.48
2017-12-30T05:26:05.039Z,98.45
2017-12-30T05:27:05.024Z,98.45
2017-12-30T05:28:05.039Z,98.40
2017-12-30T05:29:04.973Z,98.31
2017-12-30T05:30:05.022Z,98.18
2017-12-30T05:31:05.018Z,98.10
2017-12-30T05:32:04.954Z,98.07
2017-12-30T05:33:04.955Z,98.07
2017-12-30T05:34:05.075Z,98.15
2017-12-30T05:35:05.008Z,98.04
2017-12-30T05:36:05.076Z,98.07
2017-12-30T05:37:05.012Z,98.23
2017-12-30T05:38:05.076Z,98.29
2017-12-30T05:39:05.014Z,98.31
2017-12-30T05:40:05.115Z,98.40
2017-12-30T05:41:05.017Z,98.40
2017-12-30T05:42:05.094Z,98.40
2017-12-30T05:43:05.010Z,98.34
2017-12-30T05:44:05.013Z,98.23
2017-12-30T05:45:05.051Z,98.26
2017-12-30T05:46:05.012Z,98.23
2017-12-30T05:47:05.051Z,98.26
2017-12-30T05:48:05.034Z,98.31
2017-12-30T05:49:04.987Z,98.34
2017-12-30T05:50:05.084Z,98.42
2017-12-30T05:51:05.015Z,98.40
2017-12-30T05:52:04.969Z,98.48
2017-12-30T05:53:05.034Z,98.42
2017-12-30T05:54:04.989Z,98.34
2017-12-30T05:55:05.068Z,98.34
2017-12-30T05:56:05.037Z,98.23
2017-12-30T05:57:04.940Z,98.07
2017-12-30T05:58:04.984Z,97.96
2017-12-30T05:59:05.000Z,97.91
2017-12-30T06:00:05.040Z,97.88
2017-12-30T06:01:05.023Z,97.83
2017-12-30T06:02:05.050Z,97.77
2017-12-30T06:03:04.958Z,97.69
2017-12-30T06:04:04.984Z,97.72
2017-12-30T06:05:05.184Z,97.61
2017-12-30T06:06:05.029Z,97.55
2017-12-30T06:07:05.094Z,97.55
2017-12-30T06:08:05.098Z,97.66
2017-12-30T06:09:05.034Z,97.69
2017-12-30T06:10:05.097Z,97.72
2017-12-30T06:11:05.094Z,97.77
2017-12-30T06:12:05.042Z,97.85
2017-12-30T06:13:05.100Z,97.96
2017-12-30T06:14:05.101Z,97.93
2017-12-30T06:15:05.033Z,97.91
2017-12-30T06:16:05.101Z,97.96
2017-12-30T06:17:05.028Z,98.04
2017-12-30T06:18:05.101Z,98.04
2017-12-30T06:19:05.104Z,98.02
2017-12-30T06:20:05.039Z,97.77
2017-12-30T06:21:05.038Z,97.66
2017-12-30T06:22:05.105Z,97.42
2017-12-30T06:23:05.052Z,97.34
2017-12-30T06:24:05.108Z,97.34
2017-12-30T06:25:05.038Z,97.31
2017-12-30T06:26:05.106Z,97.34
2017-12-30T06:27:05.035Z,97.34
2017-12-30T06:28:05.107Z,97.31
2017-12-30T06:29:05.045Z,97.31
2017-12-30T06:30:05.111Z,97.02
2017-12-30T06:31:05.045Z,96.83
2017-12-30T06:32:05.113Z,96.66
2017-12-30T06:33:05.043Z,96.50
2017-12-30T06:34:05.042Z,96.42
2017-12-30T06:35:05.124Z,96.26
2017-12-30T06:36:05.041Z,96.13
2017-12-30T06:37:05.113Z,95.94
2017-12-30T06:38:05.041Z,95.77
2017-12-30T06:39:05.114Z,95.64
2017-12-30T06:40:05.045Z,95.50
2017-12-30T06:41:05.114Z,95.47
2017-12-30T06:42:05.043Z,95.42
2017-12-30T06:43:05.116Z,95.34
2017-12-30T06:44:05.119Z,95.26
2017-12-30T06:45:05.106Z,95.26
2017-12-30T06:46:05.017Z,95.26
2017-12-30T06:47:05.081Z,95.26
2017-12-30T06:48:04.991Z,95.26
2017-12-30T06:49:05.080Z,95.26
2017-12-30T06:50:05.062Z,94.99
2017-12-30T06:51:05.064Z,94.88
2017-12-30T06:52:05.004Z,94.83
2017-12-30T06:53:05.111Z,94.69
2017-12-30T06:54:05.049Z,94.69
2017-12-30T06:55:05.067Z,94.67
2017-12-30T06:56:05.205Z,94.40
2017-12-30T06:57:05.124Z,94.18
2017-12-30T06:58:05.054Z,94.23
2017-12-30T06:59:05.129Z,94.10
2017-12-30T07:00:05.056Z,93.75
2017-12-30T07:01:05.126Z,93.67
2017-12-30T07:02:05.067Z,93.37
2017-12-30T07:03:05.129Z,93.21
2017-12-30T07:04:05.064Z,93.24
2017-12-30T07:05:05.061Z,92.97
2017-12-30T07:06:05.157Z,92.97
2017-12-30T07:07:05.023Z,92.97
2017-12-30T07:08:05.062Z,92.73
2017-12-30T07:09:05.131Z,92.43
2017-12-30T07:10:05.069Z,92.16
2017-12-30T07:11:05.065Z,92.16
2017-12-30T07:12:05.135Z,92.46
2017-12-30T07:13:05.068Z,92.46
2017-12-30T07:14:05.136Z,92.35
2017-12-30T07:15:05.065Z,92.38
2017-12-30T07:16:05.138Z,92.54
2017-12-30T07:17:05.204Z,92.30
2017-12-30T07:18:05.071Z,92.16
2017-12-30T07:19:05.351Z,92.32
2017-12-30T07:20:05.073Z,91.97
2017-12-30T07:21:05.139Z,92.11
2017-12-30T07:22:05.070Z,92.19
2017-12-30T07:23:05.140Z,92.32
2017-12-30T07:24:05.144Z,92.40
2017-12-30T07:25:05.042Z,92.51
2017-12-30T07:26:05.140Z,92.70
2017-12-30T07:27:05.071Z,92.86
2017-12-30T07:28:05.052Z,92.99
2017-12-30T07:29:05.144Z,93.08
2017-12-30T07:30:05.048Z,93.10
2017-12-30T07:31:05.030Z,93.18
2017-12-30T07:32:05.047Z,93.29
2017-12-30T07:33:05.028Z,93.29
2017-12-30T07:34:05.096Z,93.26
2017-12-30T07:35:05.148Z,93.35
2017-12-30T07:36:05.112Z,93.10
2017-12-30T07:37:05.166Z,93.24
2017-12-30T07:38:05.107Z,93.21
2017-12-30T07:39:05.082Z,93.37
2017-12-30T07:40:05.082Z,93.51
2017-12-30T07:41:05.153Z,93.59
2017-12-30T07:42:05.090Z,93.67
2017-12-30T07:43:05.151Z,93.78
2017-12-30T07:44:05.085Z,93.64
2017-12-30T07:45:05.088Z,93.67
2017-12-30T07:46:05.157Z,93.78
2017-12-30T07:47:05.091Z,93.81
2017-12-30T07:48:05.154Z,93.81
2017-12-30T07:49:05.104Z,93.81
2017-12-30T07:50:05.161Z,93.75
2017-12-30T07:51:05.108Z,93.78
2017-12-30T07:52:05.156Z,93.89
2017-12-30T07:53:05.164Z,93.78
2017-12-30T07:54:05.163Z,93.64
2017-12-30T07:55:05.148Z,93.64
2017-12-30T07:56:05.111Z,93.51
2017-12-30T07:57:05.048Z,93.45
2017-12-30T07:58:05.106Z,93.40
2017-12-30T07:59:05.357Z,93.40
2017-12-30T08:00:05.075Z,93.43
2017-12-30T08:01:05.047Z,93.40
2017-12-30T08:02:05.066Z,93.26
2017-12-30T08:03:05.048Z,93.21
2017-12-30T08:04:05.158Z,93.26
2017-12-30T08:05:05.165Z,93.29
2017-12-30T08:06:05.106Z,93.29
2017-12-30T08:07:05.168Z,93.18
2017-12-30T08:08:05.093Z,93.29
2017-12-30T08:09:05.167Z,93.54
2017-12-30T08:10:05.102Z,93.70
2017-12-30T08:11:05.179Z,93.59
2017-12-30T08:12:05.097Z,93.70
2017-12-30T08:13:05.171Z,93.91
2017-12-30T08:14:05.099Z,94.37
2017-12-30T08:15:05.173Z,94.69
2017-12-30T08:16:05.102Z,95.28
2017-12-30T08:17:05.179Z,95.66
2017-12-30T08:18:05.174Z,95.91
2017-12-30T08:19:05.107Z,96.13
2017-12-30T08:20:05.177Z,96.61
2017-12-30T08:21:05.110Z,97.02
2017-12-30T08:22:05.176Z,97.42
2017-12-30T08:23:05.102Z,97.88
2017-12-30T08:24:05.179Z,98.10
2017-12-30T08:25:05.067Z,98.23
2017-12-30T08:26:05.136Z,98.23
2017-12-30T08:27:05.125Z,98.40
2017-12-30T08:28:05.163Z,98.61
2017-12-30T08:29:05.111Z,98.83
2017-12-30T08:30:05.188Z,99.04
2017-12-30T08:31:05.185Z,99.32
2017-12-30T08:32:05.132Z,99.59
2017-12-30T08:33:05.164Z,99.83
2017-12-30T08:34:05.136Z,99.94
2017-12-30T08:35:05.183Z,99.99
2017-12-30T08:36:05.189Z,99.99
2017-12-30T08:37:05.108Z,99.99
2017-12-30T08:38:05.186Z,99.99
2017-12-30T08:39:05.187Z,99.99
2017-12-30T08:40:05.120Z,99.99
2017-12-30T08:41:05.069Z,99.99
2017-12-30T08:42:05.118Z,99.99
2017-12-30T08:43:05.187Z,99.99
2017-12-30T08:44:05.114Z,99.99
2017-12-30T08:45:05.127Z,99.99
2017-12-30T08:46:05.132Z,99.99
2017-12-30T08:47:05.121Z,99.99
2017-12-30T08:48:05.040Z,99.99
2017-12-30T08:49:05.048Z,99.99
2017-12-30T08:50:05.091Z,99.99
2017-12-30T08:51:05.090Z,99.99
2017-12-30T08:52:05.087Z,99.99
2017-12-30T08:53:05.086Z,99.99
2017-12-30T08:54:05.142Z,99.99
2017-12-30T08:55:05.124Z,99.99
2017-12-30T08:56:05.081Z,99.99
2017-12-30T08:57:05.132Z,99.99
2017-12-30T08:58:05.198Z,99.99
2017-12-30T08:59:05.140Z,99.99
2017-12-30T09:00:05.199Z,99.99
2017-12-30T09:01:05.131Z,99.99
2017-12-30T09:02:05.201Z,99.99
2017-12-30T09:03:05.162Z,99.99
2017-12-30T09:04:05.133Z,99.99
2017-12-30T09:05:05.098Z,99.99
2017-12-30T09:06:05.096Z,99.99
2017-12-30T09:07:05.097Z,99.99
2017-12-30T09:08:05.099Z,99.99
2017-12-30T09:09:05.142Z,99.99
2017-12-30T09:10:05.102Z,99.99
2017-12-30T09:11:05.158Z,99.99
2017-12-30T09:12:05.055Z,99.99
2017-12-30T09:13:05.148Z,99.99
2017-12-30T09:14:05.057Z,99.99
2017-12-30T09:15:05.096Z,99.99
2017-12-30T09:16:05.146Z,99.99
2017-12-30T09:17:05.083Z,99.99
2017-12-30T09:18:05.095Z,99.99
2017-12-30T09:19:05.095Z,99.99
2017-12-30T09:20:05.149Z,99.99
2017-12-30T09:21:05.153Z,99.99
2017-12-30T09:22:05.149Z,99.99
2017-12-30T09:23:05.103Z,99.99
2017-12-30T09:24:05.058Z,99.99
2017-12-30T09:25:05.144Z,99.99
2017-12-30T09:26:05.216Z,99.99
2017-12-30T09:27:05.143Z,99.99
2017-12-30T09:28:05.143Z,99.99
2017-12-30T09:29:05.149Z,99.99
2017-12-30T09:30:05.216Z,99.99
2017-12-30T09:31:05.146Z,99.99
2017-12-30T09:32:05.100Z,99.99
2017-12-30T09:33:05.149Z,99.99
2017-12-30T09:34:05.250Z,99.99
2017-12-30T09:35:05.149Z,99.99
2017-12-30T09:36:05.218Z,99.99
2017-12-30T09:37:05.150Z,99.99
2017-12-30T09:38:05.220Z,99.99
2017-12-30T09:39:05.152Z,99.99
2017-12-30T09:40:05.221Z,99.99
2017-12-30T09:41:05.152Z,99.99
2017-12-30T09:42:05.225Z,99.99
2017-12-30T09:43:05.151Z,99.99
2017-12-30T09:44:05.223Z,99.99
2017-12-30T09:45:05.207Z,99.99
2017-12-30T09:46:05.148Z,99.99
2017-12-30T09:47:05.168Z,99.99
2017-12-30T09:48:05.224Z,99.99
2017-12-30T09:49:05.172Z,99.99
2017-12-30T09:50:05.131Z,99.99
2017-12-30T09:51:05.218Z,99.99
2017-12-30T09:52:05.127Z,99.99
2017-12-30T09:53:05.174Z,99.99
2017-12-30T09:54:05.112Z,99.99
2017-12-30T09:55:05.233Z,99.99
2017-12-30T09:56:05.161Z,99.99
2017-12-30T09:57:05.230Z,99.99
2017-12-30T09:58:05.163Z,99.99
2017-12-30T09:59:05.163Z,99.99
2017-12-30T10:00:05.264Z,99.99
2017-12-30T10:01:05.247Z,99.99
2017-12-30T10:02:05.166Z,99.99
2017-12-30T10:03:05.235Z,99.99
2017-12-30T10:04:05.237Z,99.99
2017-12-30T10:05:05.206Z,99.99
2017-12-30T10:06:05.263Z,99.99
2017-12-30T10:07:05.165Z,99.99
2017-12-30T10:08:05.237Z,99.99
2017-12-30T10:09:05.173Z,99.99
2017-12-30T10:10:05.240Z,99.99
2017-12-30T10:11:05.164Z,99.99
2017-12-30T10:12:05.164Z,99.99
2017-12-30T10:13:05.244Z,99.99
2017-12-30T10:14:05.166Z,99.99
2017-12-30T10:15:05.244Z,99.99
2017-12-30T10:16:05.174Z,99.99
2017-12-30T10:17:05.246Z,99.99
2017-12-30T10:18:05.170Z,99.99
2017-12-30T10:19:05.248Z,99.99
2017-12-30T10:20:05.171Z,99.99
2017-12-30T10:21:05.247Z,99.99
2017-12-30T10:22:05.179Z,99.99
2017-12-30T10:23:05.248Z,99.99
2017-12-30T10:24:05.176Z,99.99
2017-12-30T10:25:05.251Z,99.99
2017-12-30T10:26:05.251Z,99.99
2017-12-30T10:27:05.176Z,99.99
2017-12-30T10:28:05.259Z,99.99
2017-12-30T10:29:05.186Z,99.99
2017-12-30T10:30:05.252Z,99.99
2017-12-30T10:31:05.182Z,99.99
2017-12-30T10:32:05.183Z,99.99
2017-12-30T10:33:05.255Z,99.99
2017-12-30T10:34:05.184Z,99.99
2017-12-30T10:35:05.156Z,99.99
2017-12-30T10:36:05.184Z,99.99
2017-12-30T10:37:05.150Z,99.99
2017-12-30T10:38:05.167Z,99.99
2017-12-30T10:39:05.205Z,99.99
2017-12-30T10:40:05.143Z,99.99
2017-12-30T10:41:05.146Z,99.99
2017-12-30T10:42:05.238Z,99.99
2017-12-30T10:43:05.184Z,99.99
2017-12-30T10:44:05.116Z,99.99
2017-12-30T10:45:05.167Z,99.99
2017-12-30T10:46:05.165Z,99.99
2017-12-30T10:47:05.245Z,99.99
2017-12-30T10:48:05.188Z,99.99
2017-12-30T10:49:05.255Z,99.99
2017-12-30T10:50:05.252Z,99.99
2017-12-30T10:51:05.263Z,99.99
2017-12-30T10:52:05.232Z,99.99
2017-12-30T10:53:05.186Z,99.99
2017-12-30T10:54:05.227Z,99.99
2017-12-30T10:55:05.191Z,99.99
2017-12-30T10:56:05.236Z,99.99
2017-12-30T10:57:05.167Z,99.99
2017-12-30T10:58:05.163Z,99.99
2017-12-30T10:59:05.180Z,99.99
2017-12-30T11:00:05.258Z,99.99
2017-12-30T11:01:05.206Z,99.99
2017-12-30T11:02:05.267Z,99.99
2017-12-30T11:03:05.209Z,99.99
2017-12-30T11:04:05.173Z,99.99
2017-12-30T11:05:05.154Z,99.99
2017-12-30T11:06:05.157Z,99.99
2017-12-30T11:07:05.251Z,99.99
2017-12-30T11:08:05.234Z,99.99
2017-12-30T11:09:05.223Z,99.99
2017-12-30T11:10:05.222Z,99.99
2017-12-30T11:11:05.147Z,99.99
2017-12-30T11:12:05.240Z,99.99
2017-12-30T11:13:05.242Z,99.99
2017-12-30T11:14:05.204Z,99.99
2017-12-30T11:15:05.280Z,99.99
2017-12-30T11:16:05.211Z,99.99
2017-12-30T11:17:05.283Z,99.99
2017-12-30T11:18:05.206Z,99.99
2017-12-30T11:19:05.193Z,99.99
2017-12-30T11:20:05.212Z,99.99
2017-12-30T11:21:05.284Z,99.99
2017-12-30T11:22:05.214Z,99.99
2017-12-30T11:23:05.286Z,99.99
2017-12-30T11:24:05.210Z,99.99
2017-12-30T11:25:05.281Z,99.99
2017-12-30T11:26:05.209Z,99.99
2017-12-30T11:27:05.200Z,99.99
2017-12-30T11:28:05.138Z,99.99
2017-12-30T11:29:05.231Z,99.99
2017-12-30T11:30:05.216Z,99.99
2017-12-30T11:31:05.229Z,99.99
2017-12-30T11:32:05.215Z,99.99
2017-12-30T11:33:05.123Z,99.99
2017-12-30T11:34:05.245Z,99.99
2017-12-30T11:35:05.219Z,99.99
2017-12-30T11:36:05.221Z,99.99
2017-12-30T11:37:05.291Z,99.99
2017-12-30T11:38:05.299Z,99.99
2017-12-30T11:39:05.226Z,99.99
2017-12-30T11:40:05.296Z,99.99
2017-12-30T11:41:05.295Z,99.99
2017-12-30T11:42:05.221Z,99.99
2017-12-30T11:43:05.298Z,99.99
2017-12-30T11:44:05.242Z,99.99
2017-12-30T11:45:05.343Z,99.99
2017-12-30T11:46:05.225Z,99.99
2017-12-30T11:47:05.240Z,99.99
2017-12-30T11:48:05.300Z,99.99
2017-12-30T11:49:05.269Z,99.99
2017-12-30T11:50:05.228Z,99.99
2017-12-30T11:51:05.302Z,99.99
2017-12-30T11:52:05.230Z,99.99
2017-12-30T11:53:05.229Z,99.99
2017-12-30T11:54:05.183Z,99.99
2017-12-30T11:55:05.229Z,99.99
2017-12-30T11:56:05.305Z,99.99
2017-12-30T11:57:05.235Z,99.99
2017-12-30T11:58:05.232Z,99.99
2017-12-30T11:59:05.306Z,99.99
2017-12-30T12:00:05.235Z,99.99
2017-12-30T12:01:05.309Z,99.99
2017-12-30T12:02:05.240Z,99.99
2017-12-30T12:03:05.310Z,99.99
2017-12-30T12:04:05.242Z,99.99
2017-12-30T12:05:05.313Z,99.99
2017-12-30T12:06:05.240Z,99.99
2017-12-30T12:07:05.241Z,99.99
2017-12-30T12:08:05.241Z,99.99
2017-12-30T12:09:05.310Z,99.99
2017-12-30T12:10:05.240Z,99.99
2017-12-30T12:11:05.330Z,99.99
2017-12-30T12:12:05.245Z,99.99
2017-12-30T12:13:05.314Z,99.99
2017-12-30T12:14:05.315Z,99.99
2017-12-30T12:15:05.240Z,99.99
2017-12-30T12:16:05.299Z,99.99
2017-12-30T12:17:05.227Z,99.99
2017-12-30T12:18:05.259Z,99.99
2017-12-30T12:19:05.278Z,99.99
2017-12-30T12:20:05.307Z,99.99
2017-12-30T12:21:05.220Z,99.99
2017-12-30T12:22:05.262Z,99.99
2017-12-30T12:23:05.265Z,99.99
2017-12-30T12:24:05.218Z,99.99
2017-12-30T12:25:05.245Z,99.99
2017-12-30T12:26:05.321Z,99.99
2017-12-30T12:27:05.249Z,99.99
2017-12-30T12:28:05.327Z,99.99
2017-12-30T12:29:05.251Z,99.99
2017-12-30T12:30:05.325Z,99.99
2017-12-30T12:31:05.251Z,99.99
2017-12-30T12:32:05.327Z,99.99
2017-12-30T12:33:05.254Z,99.99
2017-12-30T12:34:05.327Z,99.99
2017-12-30T12:35:05.287Z,99.99
2017-12-30T12:36:05.327Z,99.99
2017-12-30T12:37:05.262Z,99.99
2017-12-30T12:38:05.336Z,99.99
2017-12-30T12:39:05.333Z,99.99
2017-12-30T12:40:05.266Z,99.99
2017-12-30T12:41:05.331Z,99.99
2017-12-30T12:42:05.259Z,99.99
2017-12-30T12:43:05.334Z,99.99
2017-12-30T12:44:05.262Z,99.99
2017-12-30T12:45:05.336Z,99.99
2017-12-30T12:46:05.279Z,99.99
2017-12-30T12:47:05.198Z,99.99
2017-12-30T12:48:05.275Z,99.99
2017-12-30T12:49:05.211Z,99.99
2017-12-30T12:50:05.311Z,99.99
2017-12-30T12:51:05.305Z,99.99
2017-12-30T12:52:05.287Z,99.99
2017-12-30T12:53:05.242Z,99.99